Time;durP1;ratioP1;P1;durP2;ratioP2;P2;SDS_P1;SDS_P2;PMS_P1;PMS_P2;Temp;Humidity;BMP_temperature;BMP_pressure;BME280_temperature;BME280_humidity;BME280_pressure;Samples;Min_cycle;Max_cycle;Signal;HPM_P1;HPM_P2
2023/12/15 00:02:11;;;;;;;7.00;6.07;;;8.90;99.90;;;;;;978222;142;27256;-82
2023/12/15 00:04:38;;;;;;;10.10;6.90;;;8.90;99.90;;;;;;980136;142;27292;-81
2023/12/15 00:07:04;;;;;;;8.43;6.63;;;8.90;99.90;;;;;;976721;144;27227;-82
2023/12/15 00:09:31;;;;;;;8.97;7.27;;;8.90;99.90;;;;;;976787;142;27332;-81
2023/12/15 00:11:57;;;;;;;9.33;7.77;;;8.90;99.90;;;;;;978372;146;27384;-82
2023/12/15 00:14:24;;;;;;;10.13;7.70;;;8.90;99.90;;;;;;979094;146;27264;-82
2023/12/15 00:16:51;;;;;;;10.00;7.67;;;8.90;99.90;;;;;;979456;145;27252;-82
2023/12/15 00:19:17;;;;;;;8.93;7.10;;;8.90;99.90;;;;;;979713;144;27344;-82
2023/12/15 00:21:44;;;;;;;9.73;7.47;;;8.90;99.90;;;;;;977583;145;27417;-82
2023/12/15 00:24:10;;;;;;;8.43;6.87;;;8.90;99.90;;;;;;974613;145;27400;-82
2023/12/15 00:26:37;;;;;;;7.97;7.00;;;8.80;99.90;;;;;;969634;145;27335;-81
2023/12/15 00:29:03;;;;;;;9.53;7.23;;;8.80;99.90;;;;;;968573;145;27280;-81
2023/12/15 00:31:30;;;;;;;8.90;7.30;;;8.80;99.90;;;;;;970002;145;27255;-82
2023/12/15 00:33:57;;;;;;;9.37;7.60;;;8.80;99.90;;;;;;969265;145;27423;-82
2023/12/15 00:36:23;;;;;;;9.20;7.70;;;8.80;99.90;;;;;;970451;144;27230;-81
2023/12/15 00:38:50;;;;;;;8.60;7.27;;;8.80;99.90;;;;;;968062;145;27297;-82
2023/12/15 00:41:16;;;;;;;10.43;7.40;;;8.80;99.90;;;;;;968942;144;27344;-81
2023/12/15 00:43:43;;;;;;;9.17;7.43;;;8.80;99.90;;;;;;965436;145;27311;-81
2023/12/15 00:46:10;;;;;;;10.50;7.90;;;8.70;99.90;;;;;;964482;145;27309;-82
2023/12/15 00:48:36;;;;;;;9.67;7.57;;;8.80;99.90;;;;;;963488;145;27333;-82
2023/12/15 00:51:03;;;;;;;9.50;6.90;;;8.80;99.90;;;;;;964216;145;27380;-82
2023/12/15 00:53:32;;;;;;;9.60;7.97;;;8.70;99.90;;;;;;962633;145;27262;-81
2023/12/15 00:55:58;;;;;;;9.67;7.50;;;8.70;99.90;;;;;;964332;144;27298;-81
2023/12/15 00:58:25;;;;;;;10.37;8.37;;;8.70;99.90;;;;;;961177;144;27272;-80
2023/12/15 01:00:52;;;;;;;10.33;7.80;;;8.70;99.90;;;;;;961487;146;27276;-81
2023/12/15 01:03:18;;;;;;;13.27;8.20;;;8.70;99.90;;;;;;946541;148;27426;-82
2023/12/15 01:05:45;;;;;;;9.57;7.93;;;8.70;99.90;;;;;;939558;149;27461;-80
2023/12/15 01:08:11;;;;;;;11.73;8.57;;;8.70;99.90;;;;;;921360;153;27311;-81
2023/12/15 01:10:38;;;;;;;10.90;8.20;;;8.70;99.90;;;;;;941507;149;27367;-81
2023/12/15 01:13:04;;;;;;;9.63;8.30;;;8.70;99.90;;;;;;943763;148;27288;-81
2023/12/15 01:15:32;;;;;;;11.20;8.80;;;8.70;99.90;;;;;;941510;149;27363;-81
2023/12/15 01:17:58;;;;;;;12.57;8.17;;;8.70;99.90;;;;;;941538;149;27418;-81
2023/12/15 01:20:24;;;;;;;10.10;8.57;;;8.60;99.90;;;;;;941727;149;27274;-82
2023/12/15 01:22:51;;;;;;;9.97;8.17;;;8.60;99.90;;;;;;941664;149;27366;-81
2023/12/15 01:25:17;;;;;;;9.60;7.70;;;8.60;99.90;;;;;;940710;148;27302;-81
2023/12/15 01:27:44;;;;;;;9.23;7.50;;;8.60;99.90;;;;;;942318;149;27409;-81
2023/12/15 01:30:11;;;;;;;10.73;7.83;;;8.50;99.90;;;;;;940822;149;27359;-80
2023/12/15 01:32:37;;;;;;;9.30;7.83;;;8.50;99.90;;;;;;940234;149;27347;-80
2023/12/15 01:35:04;;;;;;;10.47;7.73;;;8.40;99.90;;;;;;942261;149;27278;-81
2023/12/15 01:37:30;;;;;;;10.10;7.70;;;8.40;99.90;;;;;;942971;148;27430;-81
2023/12/15 01:39:57;;;;;;;11.93;7.57;;;8.40;99.90;;;;;;959989;145;27295;-80
2023/12/15 01:42:26;;;;;;;11.17;8.50;;;8.40;99.90;;;;;;970419;143;27428;-80
2023/12/15 01:44:50;;;;;;;8.43;7.53;;;8.30;99.90;;;;;;967866;145;27326;-81
2023/12/15 01:47:18;;;;;;;9.23;7.53;;;8.30;99.90;;;;;;959262;145;27409;-80
2023/12/15 01:49:43;;;;;;;7.77;6.73;;;8.30;99.90;;;;;;965496;145;27814;-81
2023/12/15 01:52:10;;;;;;;10.67;7.90;;;8.30;99.90;;;;;;966211;145;27438;-81
2023/12/15 01:54:36;;;;;;;8.83;6.93;;;8.20;99.90;;;;;;967343;145;27353;-81
2023/12/15 01:59:29;;;;;;;8.40;7.10;;;8.20;99.90;;;;;;964201;145;38519;-82
2023/12/15 02:01:56;;;;;;;12.63;8.20;;;8.20;99.90;;;;;;964446;145;27300;-82
2023/12/15 02:04:22;;;;;;;11.40;8.03;;;8.20;99.90;;;;;;969333;145;27269;-82
2023/12/15 02:06:49;;;;;;;9.07;7.17;;;8.20;99.90;;;;;;969888;145;27330;-82
2023/12/15 02:09:15;;;;;;;10.67;7.53;;;8.20;99.90;;;;;;970282;145;27308;-84
2023/12/15 02:11:42;;;;;;;10.20;7.77;;;8.10;99.90;;;;;;968520;145;27386;-85
2023/12/15 02:14:08;;;;;;;11.40;8.17;;;8.10;99.90;;;;;;969122;145;27286;-84
2023/12/15 02:16:35;;;;;;;13.80;8.37;;;8.10;99.90;;;;;;970104;145;27345;-83
2023/12/15 02:19:02;;;;;;;11.43;8.27;;;8.10;99.90;;;;;;967641;145;27454;-82
2023/12/15 02:21:28;;;;;;;12.03;7.90;;;8.10;99.90;;;;;;969718;144;28458;-81
2023/12/15 02:23:55;;;;;;;11.40;8.60;;;8.10;99.90;;;;;;969468;145;27298;-82
2023/12/15 02:26:21;;;;;;;9.50;7.77;;;8.10;99.90;;;;;;952119;148;27334;-82
2023/12/15 02:28:48;;;;;;;10.17;7.87;;;8.10;99.90;;;;;;950986;148;27325;-82
2023/12/15 02:31:15;;;;;;;12.50;7.80;;;8.20;99.90;;;;;;950521;148;27338;-81
2023/12/15 02:33:41;;;;;;;10.33;7.93;;;8.20;99.90;;;;;;952210;148;27391;-82
2023/12/15 02:36:08;;;;;;;11.03;8.33;;;8.20;99.90;;;;;;952280;146;27331;-82
2023/12/15 02:38:34;;;;;;;10.63;7.53;;;8.20;99.90;;;;;;951984;148;27314;-82
2023/12/15 02:41:01;;;;;;;11.57;7.87;;;8.20;99.90;;;;;;950866;148;27357;-82
2023/12/15 02:43:28;;;;;;;10.57;7.70;;;8.20;99.90;;;;;;950328;148;27382;-82
2023/12/15 02:45:54;;;;;;;9.87;7.63;;;8.20;99.90;;;;;;952447;148;27288;-82
2023/12/15 02:48:21;;;;;;;10.73;8.37;;;8.20;99.90;;;;;;952142;148;27643;-82
2023/12/15 02:50:47;;;;;;;10.93;7.87;;;8.20;99.90;;;;;;949754;148;27421;-82
2023/12/15 02:53:14;;;;;;;10.83;7.93;;;8.20;99.90;;;;;;951960;146;27437;-82
2023/12/15 02:55:40;;;;;;;10.70;8.20;;;8.20;99.90;;;;;;951930;148;27369;-82
2023/12/15 02:58:07;;;;;;;9.97;7.80;;;8.20;99.90;;;;;;950350;148;27395;-82
2023/12/15 03:00:34;;;;;;;10.67;7.87;;;8.20;99.90;;;;;;945272;149;27390;-81
2023/12/15 03:03:00;;;;;;;11.23;7.97;;;8.20;99.90;;;;;;945234;149;27376;-81
2023/12/15 03:05:27;;;;;;;9.53;7.47;;;8.20;99.90;;;;;;943807;149;27365;-82
2023/12/15 03:07:53;;;;;;;9.70;7.23;;;8.20;99.90;;;;;;946603;149;27447;-82
2023/12/15 03:10:20;;;;;;;9.77;8.03;;;8.20;99.90;;;;;;946092;147;27414;-82
2023/12/15 03:12:47;;;;;;;10.13;8.23;;;8.20;99.90;;;;;;946852;149;27401;-81
2023/12/15 03:15:13;;;;;;;14.23;7.77;;;8.20;99.90;;;;;;946095;149;27358;-81
2023/12/15 03:17:40;;;;;;;11.07;8.40;;;8.20;99.90;;;;;;944787;149;27370;-82
2023/12/15 03:20:06;;;;;;;10.83;8.10;;;8.20;99.90;;;;;;943963;149;27417;-80
2023/12/15 03:22:33;;;;;;;11.47;8.37;;;8.30;99.90;;;;;;945138;148;27383;-80
2023/12/15 03:25:00;;;;;;;10.53;8.23;;;8.30;99.90;;;;;;945723;147;27371;-80
2023/12/15 03:27:26;;;;;;;11.70;9.00;;;8.30;99.90;;;;;;946837;147;27349;-80
2023/12/15 03:29:53;;;;;;;10.60;7.87;;;8.30;99.90;;;;;;945256;149;27344;-79
2023/12/15 03:32:19;;;;;;;9.63;7.43;;;8.30;99.90;;;;;;945410;149;27437;-80
2023/12/15 03:34:46;;;;;;;10.27;8.33;;;8.30;99.90;;;;;;946758;148;27303;-80
2023/12/15 03:37:12;;;;;;;10.60;7.90;;;8.30;99.90;;;;;;926929;149;27482;-80
2023/12/15 03:39:39;;;;;;;10.57;8.30;;;8.30;99.90;;;;;;927402;150;27479;-80
2023/12/15 03:42:07;;;;;;;11.07;8.70;;;8.30;99.90;;;;;;926322;150;27440;-80
2023/12/15 03:44:39;;;;;;;11.93;9.53;;;8.30;99.90;;;;;;926874;150;27340;-80
2023/12/15 03:47:05;;;;;;;11.10;8.37;;;8.30;99.90;;;;;;941873;147;27366;-80
2023/12/15 03:49:31;;;;;;;11.10;9.00;;;8.30;99.90;;;;;;927494;149;27511;-79
2023/12/15 03:51:58;;;;;;;9.97;8.47;;;8.30;99.90;;;;;;919433;151;27328;-79
2023/12/15 03:54:24;;;;;;;10.17;8.50;;;8.40;99.90;;;;;;945074;147;27315;-79
2023/12/15 03:56:57;;;;;;;9.63;7.67;;;8.40;99.90;;;;;;929669;150;27354;-80
2023/12/15 03:59:23;;;;;;;10.33;8.00;;;8.40;99.90;;;;;;929318;150;28095;-79
2023/12/15 04:01:50;;;;;;;11.67;9.07;;;8.40;99.90;;;;;;920191;150;27303;-79
2023/12/15 04:04:16;;;;;;;11.33;8.30;;;8.40;99.90;;;;;;943345;147;27289;-79
2023/12/15 04:06:43;;;;;;;11.30;8.23;;;8.40;99.90;;;;;;928705;150;27315;-81
2023/12/15 04:09:10;;;;;;;11.00;8.40;;;8.40;99.90;;;;;;926908;150;27360;-80
2023/12/15 04:11:36;;;;;;;10.30;8.23;;;8.40;99.90;;;;;;927603;149;27748;-78
2023/12/15 04:14:03;;;;;;;10.60;8.23;;;8.50;99.90;;;;;;940346;148;27333;-79
2023/12/15 04:16:29;;;;;;;13.37;8.27;;;8.50;99.90;;;;;;941670;147;27783;-79
2023/12/15 04:18:56;;;;;;;13.40;7.97;;;8.50;99.90;;;;;;925254;149;27362;-80
2023/12/15 04:21:23;;;;;;;12.10;8.30;;;8.50;99.90;;;;;;919012;151;27568;-79
2023/12/15 04:23:50;;;;;;;11.00;7.37;;;8.50;99.90;;;;;;944584;147;27248;-79
2023/12/15 04:26:16;;;;;;;13.00;8.77;;;8.50;99.90;;;;;;935111;149;27477;-80
2023/12/15 04:28:42;;;;;;;12.90;9.03;;;8.50;99.90;;;;;;929456;149;27411;-79
2023/12/15 04:31:09;;;;;;;11.50;8.23;;;8.50;99.90;;;;;;920423;151;27522;-81
2023/12/15 04:33:36;;;;;;;10.80;8.53;;;8.50;99.90;;;;;;941204;147;28423;-80
2023/12/15 04:36:02;;;;;;;10.80;8.37;;;8.40;99.90;;;;;;934936;150;27326;-80
2023/12/15 04:38:29;;;;;;;9.03;7.40;;;8.40;99.90;;;;;;918876;150;27869;-81
2023/12/15 04:40:55;;;;;;;11.20;8.57;;;8.30;99.90;;;;;;937555;149;27404;-81
2023/12/15 04:43:22;;;;;;;10.23;7.67;;;8.30;99.90;;;;;;934594;149;27404;-80
2023/12/15 04:45:48;;;;;;;10.27;8.77;;;8.20;99.90;;;;;;934113;149;27384;-80
2023/12/15 04:48:15;;;;;;;10.43;7.97;;;8.10;99.90;;;;;;927650;149;27430;-80
2023/12/15 04:50:42;;;;;;;9.43;7.13;;;7.90;99.90;;;;;;927230;149;27334;-80
2023/12/15 04:53:08;;;;;;;10.93;7.73;;;7.80;99.90;;;;;;943462;147;27362;-81
2023/12/15 04:55:35;;;;;;;10.50;8.17;;;7.70;99.90;;;;;;935883;149;27993;-81
2023/12/15 04:58:01;;;;;;;10.77;7.37;;;7.60;99.90;;;;;;934825;149;27398;-81
2023/12/15 05:00:28;;;;;;;10.40;7.80;;;7.50;99.90;;;;;;933852;149;27320;-81
2023/12/15 05:02:55;;;;;;;11.70;8.33;;;7.40;99.90;;;;;;934325;149;27389;-80
2023/12/15 05:05:21;;;;;;;10.73;7.97;;;7.30;99.90;;;;;;935596;149;27441;-80
2023/12/15 05:07:48;;;;;;;12.43;8.27;;;7.30;99.90;;;;;;934779;149;27316;-81
2023/12/15 05:10:14;;;;;;;10.27;7.93;;;7.30;99.90;;;;;;934934;148;27430;-81
2023/12/15 05:12:41;;;;;;;10.40;7.90;;;7.30;99.90;;;;;;936975;149;27312;-81
2023/12/15 05:15:07;;;;;;;11.83;7.90;;;7.30;99.90;;;;;;937161;149;27292;-81
2023/12/15 05:17:34;;;;;;;11.07;8.17;;;7.30;99.90;;;;;;934986;149;27543;-80
2023/12/15 05:20:02;;;;;;;11.40;8.23;;;7.30;99.90;;;;;;927026;150;27357;-81
2023/12/15 05:22:27;;;;;;;11.47;8.43;;;7.40;99.90;;;;;;928322;150;27328;-80
2023/12/15 05:24:54;;;;;;;11.00;8.20;;;7.40;99.90;;;;;;944257;147;27462;-81
2023/12/15 05:27:20;;;;;;;11.13;8.30;;;7.40;99.90;;;;;;943366;147;27368;-81
2023/12/15 05:29:47;;;;;;;9.37;7.70;;;7.50;99.90;;;;;;942342;147;28921;-81
2023/12/15 05:32:14;;;;;;;11.87;8.00;;;7.50;99.90;;;;;;942675;147;27354;-81
2023/12/15 05:34:40;;;;;;;10.17;7.93;;;7.50;99.90;;;;;;941563;147;27348;-81
2023/12/15 05:37:07;;;;;;;11.37;7.40;;;7.50;99.90;;;;;;942893;147;27393;-81
2023/12/15 05:39:33;;;;;;;11.03;8.00;;;7.60;99.90;;;;;;943055;147;27366;-81
2023/12/15 05:42:00;;;;;;;11.80;8.30;;;7.60;99.90;;;;;;942682;147;27302;-81
2023/12/15 05:44:26;;;;;;;10.10;7.40;;;7.60;99.90;;;;;;943940;147;27368;-81
2023/12/15 05:46:53;;;;;;;10.73;8.17;;;7.70;99.90;;;;;;943333;147;27317;-81
2023/12/15 05:49:20;;;;;;;10.10;8.00;;;7.70;99.90;;;;;;943381;147;27450;-81
2023/12/15 05:51:46;;;;;;;10.43;8.50;;;7.70;99.90;;;;;;942847;147;28536;-79
2023/12/15 05:54:13;;;;;;;11.83;8.90;;;7.70;99.90;;;;;;943842;147;27349;-79
2023/12/15 05:56:39;;;;;;;12.43;8.70;;;7.70;99.90;;;;;;942074;147;27321;-79
2023/12/15 05:59:06;;;;;;;10.77;8.23;;;7.70;99.90;;;;;;942548;147;27397;-80
2023/12/15 06:01:33;;;;;;;10.13;8.03;;;7.70;99.90;;;;;;943073;147;27732;-78
2023/12/15 06:03:59;;;;;;;10.27;8.27;;;7.80;99.90;;;;;;942125;147;27337;-79
2023/12/15 06:06:26;;;;;;;11.27;8.50;;;7.70;99.90;;;;;;945777;147;27403;-79
2023/12/15 06:08:52;;;;;;;12.17;9.37;;;7.70;99.90;;;;;;942708;147;27252;-80
2023/12/15 06:11:19;;;;;;;11.10;8.40;;;7.70;99.90;;;;;;942151;147;27731;-79
2023/12/15 06:13:46;;;;;;;12.93;8.77;;;7.70;99.90;;;;;;941933;147;28449;-79
2023/12/15 06:16:18;;;;;;;10.47;8.20;;;7.70;99.90;;;;;;943897;147;27311;-81
2023/12/15 06:18:45;;;;;;;10.80;8.13;;;7.70;99.90;;;;;;941556;147;27391;-79
2023/12/15 06:21:23;;;;;;;12.97;8.70;;;7.70;99.90;;;;;;941586;147;27357;-81
2023/12/15 06:23:50;;;;;;;13.83;9.43;;;7.70;99.90;;;;;;932972;149;27412;-79
2023/12/15 06:26:23;;;;;;;11.30;9.30;;;7.70;99.90;;;;;;935018;149;27326;-79
2023/12/15 06:28:49;;;;;;;13.17;9.00;;;7.70;99.90;;;;;;940986;147;27419;-80
2023/12/15 06:31:16;;;;;;;13.43;9.57;;;7.70;99.90;;;;;;938438;148;27363;-80
2023/12/15 06:33:42;;;;;;;13.53;9.23;;;7.60;99.90;;;;;;938494;149;27440;-79
2023/12/15 06:36:09;;;;;;;14.70;9.73;;;7.60;99.90;;;;;;940273;148;27416;-79
2023/12/15 06:38:44;;;;;;;14.90;10.63;;;7.60;99.90;;;;;;941479;149;27865;-79
2023/12/15 06:41:05;;;;;;;13.53;9.70;;;7.60;99.90;;;;;;938223;149;27320;-79
2023/12/15 06:43:32;;;;;;;12.63;10.13;;;7.60;99.90;;;;;;938923;149;27429;-80
2023/12/15 06:45:58;;;;;;;14.27;10.07;;;7.50;99.90;;;;;;937355;149;27372;-78
2023/12/15 06:48:25;;;;;;;12.50;9.30;;;7.50;99.90;;;;;;936712;149;27340;-79
2023/12/15 06:50:51;;;;;;;13.40;10.03;;;7.50;99.90;;;;;;939935;148;27342;-84
2023/12/15 06:53:18;;;;;;;12.60;9.13;;;7.50;99.90;;;;;;926590;149;27343;-85
2023/12/15 06:55:45;;;;;;;14.67;10.00;;;7.50;99.90;;;;;;927012;149;27491;-86
2023/12/15 06:58:11;;;;;;;13.53;9.67;;;7.50;99.90;;;;;;920128;150;28293;-84
2023/12/15 07:00:39;;;;;;;12.03;9.30;;;7.40;99.90;;;;;;929502;148;27453;-81
2023/12/15 07:03:04;;;;;;;11.60;8.83;;;7.40;99.90;;;;;;928613;149;27322;-82
2023/12/15 07:05:31;;;;;;;13.37;10.17;;;7.30;99.90;;;;;;955558;147;27309;-81
2023/12/15 07:07:58;;;;;;;13.50;9.13;;;7.30;99.90;;;;;;937232;150;27379;-82
2023/12/15 07:10:24;;;;;;;15.33;9.47;;;7.20;99.90;;;;;;938373;151;27356;-83
2023/12/15 07:12:51;;;;;;;13.43;8.80;;;7.20;99.90;;;;;;935716;151;27286;-83
2023/12/15 07:15:17;;;;;;;12.37;9.27;;;7.20;99.90;;;;;;928230;149;27806;-82
2023/12/15 07:17:45;;;;;;;14.53;9.90;;;7.10;99.90;;;;;;952734;148;27346;-81
2023/12/15 07:20:10;;;;;;;13.80;9.53;;;7.10;99.90;;;;;;937375;151;27387;-81
2023/12/15 07:22:37;;;;;;;13.43;9.23;;;7.00;99.90;;;;;;931816;149;27323;-81
2023/12/15 07:25:04;;;;;;;13.20;9.30;;;7.00;99.90;;;;;;953436;146;27342;-81
2023/12/15 07:27:30;;;;;;;13.17;9.37;;;6.90;99.90;;;;;;945650;151;27355;-82
2023/12/15 07:29:57;;;;;;;12.73;8.93;;;6.90;99.90;;;;;;953717;146;27421;-83
2023/12/15 07:32:23;;;;;;;14.60;9.80;;;6.90;99.90;;;;;;951807;148;27287;-82
2023/12/15 07:34:51;;;;;;;13.03;9.43;;;6.80;99.90;;;;;;937200;151;27382;-82
2023/12/15 07:37:17;;;;;;;13.70;9.17;;;6.80;99.90;;;;;;936217;151;27868;-82
2023/12/15 07:39:43;;;;;;;15.17;10.33;;;6.80;99.90;;;;;;955357;146;27357;-82
2023/12/15 07:42:10;;;;;;;13.40;9.63;;;6.90;99.90;;;;;;939114;149;28512;-82
2023/12/15 07:44:37;;;;;;;13.67;9.27;;;6.90;99.90;;;;;;930084;149;27324;-82
2023/12/15 07:47:03;;;;;;;12.67;9.23;;;6.90;99.90;;;;;;952393;146;27292;-82
2023/12/15 07:49:34;;;;;;;13.93;9.60;;;7.00;99.90;;;;;;946003;151;27321;-82
2023/12/15 07:51:56;;;;;;;15.00;9.47;;;7.00;99.90;;;;;;938167;151;27359;-82
2023/12/15 07:54:23;;;;;;;11.57;9.23;;;7.10;99.90;;;;;;953596;147;27288;-82
2023/12/15 07:56:49;;;;;;;15.53;9.67;;;7.20;99.90;;;;;;936189;151;27264;-82
2023/12/15 07:59:16;;;;;;;12.10;8.80;;;7.30;99.90;;;;;;932307;149;27396;-82
2023/12/15 08:01:42;;;;;;;13.23;9.23;;;7.40;99.90;;;;;;954560;147;27397;-81
2023/12/15 08:04:10;;;;;;;13.63;9.50;;;7.50;99.90;;;;;;953323;145;27414;-81
2023/12/15 08:06:37;;;;;;;12.87;9.40;;;7.80;99.90;;;;;;941822;148;27357;-82
2023/12/15 08:09:02;;;;;;;12.00;9.37;;;8.00;99.90;;;;;;939651;149;27415;-81
2023/12/15 08:11:29;;;;;;;11.63;8.87;;;8.30;99.90;;;;;;957774;145;27336;-81
2023/12/15 08:13:55;;;;;;;12.50;9.27;;;8.50;99.90;;;;;;939360;148;27386;-82
2023/12/15 08:16:22;;;;;;;12.63;8.87;;;8.70;99.90;;;;;;955568;146;27716;-81
2023/12/15 08:18:49;;;;;;;16.70;9.73;;;8.90;99.90;;;;;;954108;148;27430;-80
2023/12/15 08:21:15;;;;;;;12.17;8.93;;;9.00;99.90;;;;;;954343;148;28159;-81
2023/12/15 08:23:42;;;;;;;10.77;8.63;;;9.00;99.90;;;;;;956465;148;27347;-81
2023/12/15 08:26:08;;;;;;;11.93;8.93;;;9.10;99.90;;;;;;955023;148;27334;-81
2023/12/15 08:28:35;;;;;;;12.50;9.60;;;9.10;99.90;;;;;;953747;148;27466;-82
2023/12/15 08:31:02;;;;;;;15.87;10.03;;;9.10;99.90;;;;;;955398;148;27318;-81
2023/12/15 08:33:28;;;;;;;13.50;8.90;;;9.10;99.90;;;;;;957018;148;27349;-81
2023/12/15 08:35:55;;;;;;;10.03;8.17;;;9.20;99.90;;;;;;954147;148;27344;-81
2023/12/15 08:38:21;;;;;;;11.70;9.10;;;9.20;99.90;;;;;;952315;148;27286;-81
2023/12/15 08:40:48;;;;;;;12.60;9.63;;;9.20;99.90;;;;;;954159;148;27323;-81
2023/12/15 08:43:14;;;;;;;11.53;9.70;;;9.20;99.90;;;;;;954882;148;27825;-81
2023/12/15 08:45:41;;;;;;;13.10;10.50;;;9.20;99.90;;;;;;953643;148;27333;-82
2023/12/15 08:48:08;;;;;;;13.53;9.40;;;9.30;99.90;;;;;;953810;148;27339;-81
2023/12/15 08:50:34;;;;;;;14.37;9.30;;;9.30;99.90;;;;;;955724;148;27267;-81
2023/12/15 08:53:02;;;;;;;11.37;8.80;;;9.30;99.90;;;;;;954802;148;27399;-81
2023/12/15 08:55:27;;;;;;;12.07;9.50;;;9.40;99.90;;;;;;953982;148;27563;-81
2023/12/15 08:57:54;;;;;;;12.30;8.63;;;9.40;99.90;;;;;;953102;148;27429;-81
2023/12/15 09:00:21;;;;;;;12.80;9.30;;;9.40;99.90;;;;;;953836;148;28493;-81
2023/12/15 09:02:50;;;;;;;12.10;8.63;;;9.50;99.90;;;;;;950932;147;27425;-80
2023/12/15 09:05:14;;;;;;;11.23;9.23;;;9.50;99.90;;;;;;949876;148;27259;-80
2023/12/15 09:07:40;;;;;;;12.63;8.87;;;9.50;99.90;;;;;;954409;148;27396;-80
2023/12/15 09:10:07;;;;;;;10.17;9.17;;;9.60;99.90;;;;;;951727;148;27369;-80
2023/12/15 09:12:33;;;;;;;14.67;9.30;;;9.60;99.90;;;;;;952595;148;27420;-82
2023/12/15 09:15:00;;;;;;;11.57;8.70;;;9.60;99.90;;;;;;928431;149;27355;-82
2023/12/15 09:17:27;;;;;;;13.37;9.30;;;9.70;99.90;;;;;;919020;150;27355;-82
2023/12/15 09:19:53;;;;;;;13.30;8.97;;;9.70;99.90;;;;;;935377;149;27487;-82
2023/12/15 09:22:20;;;;;;;9.70;8.67;;;9.80;99.90;;;;;;934137;149;27344;-82
2023/12/15 09:24:46;;;;;;;13.20;8.83;;;9.80;99.90;;;;;;928913;150;27560;-82
2023/12/15 09:27:13;;;;;;;10.83;8.77;;;9.90;99.90;;;;;;918962;151;27437;-82
2023/12/15 09:29:40;;;;;;;9.93;8.63;;;10.00;99.90;;;;;;944574;147;27435;-82
2023/12/15 09:32:06;;;;;;;9.80;8.43;;;10.10;99.90;;;;;;926545;150;27467;-82
2023/12/15 09:34:33;;;;;;;9.13;8.03;;;10.20;99.90;;;;;;942571;147;27605;-83
2023/12/15 09:36:59;;;;;;;8.77;7.60;;;10.30;99.90;;;;;;925742;149;27361;-82
2023/12/15 09:39:26;;;;;;;9.40;7.77;;;10.50;99.90;;;;;;926205;149;27411;-83
2023/12/15 09:41:53;;;;;;;9.13;7.77;;;10.60;99.90;;;;;;919599;150;27367;-82
2023/12/15 09:44:19;;;;;;;8.10;7.23;;;10.70;99.90;;;;;;942972;147;27280;-82
2023/12/15 09:46:46;;;;;;;10.80;7.67;;;10.90;99.90;;;;;;926340;149;27309;-83
2023/12/15 09:49:12;;;;;;;9.37;6.80;;;11.00;99.90;;;;;;940855;147;27285;-83
2023/12/15 09:51:39;;;;;;;8.07;6.80;;;11.20;99.90;;;;;;931019;149;27393;-83
2023/12/15 09:54:05;;;;;;;7.00;6.27;;;11.30;99.90;;;;;;925624;150;27347;-82
2023/12/15 09:56:32;;;;;;;10.47;6.83;;;11.30;99.90;;;;;;943280;147;27284;-82
2023/12/15 09:58:59;;;;;;;7.33;6.60;;;11.40;99.90;;;;;;927152;150;27299;-83
2023/12/15 10:01:25;;;;;;;8.27;6.10;;;11.40;99.90;;;;;;926978;150;27464;-83
2023/12/15 10:03:53;;;;;;;8.23;6.53;;;11.50;99.90;;;;;;942221;147;27365;-83
2023/12/15 10:06:18;;;;;;;12.50;9.47;;;11.50;99.90;;;;;;941043;147;28826;-83
2023/12/15 10:08:45;;;;;;;9.77;8.77;;;11.50;99.90;;;;;;943443;147;27331;-83
2023/12/15 10:11:12;;;;;;;7.63;6.93;;;11.50;99.90;;;;;;943404;147;27435;-83
2023/12/15 10:13:41;;;;;;;8.07;7.20;;;11.50;99.90;;;;;;942236;147;27358;-83
2023/12/15 10:16:08;;;;;;;8.53;6.92;;;11.40;99.90;;;;;;943223;147;27316;-83
2023/12/15 10:18:34;;;;;;;8.87;7.87;;;11.40;99.90;;;;;;941870;147;27341;-83
2023/12/15 10:21:01;;;;;;;10.13;8.73;;;11.40;99.90;;;;;;941048;147;27258;-82
2023/12/15 10:23:27;;;;;;;10.77;8.33;;;11.40;99.90;;;;;;940609;147;27477;-83
2023/12/15 10:25:54;;;;;;;8.43;7.43;;;11.30;99.90;;;;;;941245;147;27376;-82
2023/12/15 10:28:20;;;;;;;9.03;7.50;;;11.30;99.90;;;;;;940465;147;27318;-83
2023/12/15 10:30:47;;;;;;;8.67;7.40;;;11.30;99.90;;;;;;942377;147;27418;-83
2023/12/15 10:33:14;;;;;;;8.40;7.30;;;11.30;99.90;;;;;;943235;147;27305;-83
2023/12/15 10:35:40;;;;;;;8.00;6.87;;;11.20;99.90;;;;;;941512;147;27356;-82
2023/12/15 10:38:07;;;;;;;8.83;6.73;;;11.20;99.90;;;;;;942995;147;27415;-83
2023/12/15 10:40:33;;;;;;;9.13;7.90;;;11.20;99.90;;;;;;942669;147;27296;-82
2023/12/15 10:43:00;;;;;;;7.27;6.57;;;11.20;99.90;;;;;;943045;147;27291;-82
2023/12/15 10:45:28;;;;;;;9.53;7.10;;;11.20;99.90;;;;;;942502;147;27704;-82
2023/12/15 10:47:53;;;;;;;8.17;7.30;;;11.20;99.90;;;;;;941729;147;27456;-82
2023/12/15 10:50:20;;;;;;;8.20;7.37;;;11.10;99.90;;;;;;940339;147;27383;-82
2023/12/15 10:52:46;;;;;;;9.30;7.97;;;11.10;99.90;;;;;;943067;147;27322;-82
2023/12/15 10:55:14;;;;;;;8.80;7.53;;;11.20;99.90;;;;;;943139;147;27765;-82
2023/12/15 10:57:41;;;;;;;9.60;7.70;;;11.10;99.90;;;;;;945074;147;27360;-82
2023/12/15 11:00:07;;;;;;;8.73;7.83;;;11.10;99.90;;;;;;941547;147;27297;-82
2023/12/15 11:02:33;;;;;;;9.47;8.23;;;11.10;99.90;;;;;;943812;147;27288;-82
2023/12/15 11:04:59;;;;;;;9.00;7.93;;;11.10;99.90;;;;;;953818;146;27456;-82
2023/12/15 11:07:26;;;;;;;11.13;8.33;;;11.10;99.90;;;;;;955329;146;27381;-82
2023/12/15 11:09:52;;;;;;;9.37;8.37;;;11.20;99.90;;;;;;955129;146;27435;-82
2023/12/15 11:12:24;;;;;;;11.83;8.53;;;11.20;99.90;;;;;;953570;146;27281;-82
2023/12/15 11:14:51;;;;;;;9.75;8.75;;;11.20;99.90;;;;;;938776;149;27322;-82
2023/12/15 11:17:18;;;;;;;10.30;8.30;;;11.20;99.90;;;;;;935085;149;27369;-82
2023/12/15 11:19:45;;;;;;;10.73;8.23;;;11.20;99.90;;;;;;954571;146;27343;-82
2023/12/15 11:22:11;;;;;;;10.13;7.93;;;11.20;99.90;;;;;;937811;149;27436;-82
2023/12/15 11:24:37;;;;;;;8.10;7.30;;;11.20;99.90;;;;;;956583;145;27461;-82
2023/12/15 11:27:04;;;;;;;8.73;7.83;;;11.20;99.90;;;;;;942322;148;27363;-82
2023/12/15 11:29:36;;;;;;;8.57;7.50;;;11.20;99.90;;;;;;938406;149;27456;-82
2023/12/15 11:32:08;;;;;;;8.43;6.87;;;11.20;99.90;;;;;;936990;149;27337;-80
2023/12/15 11:34:38;;;;;;;9.53;7.50;;;11.20;99.90;;;;;;943758;146;27346;-80
2023/12/15 11:37:04;;;;;;;8.73;7.83;;;11.30;99.90;;;;;;934407;149;27413;-80
2023/12/15 11:39:31;;;;;;;10.17;8.07;;;11.30;99.90;;;;;;937402;149;27442;-80
2023/12/15 11:41:59;;;;;;;9.23;7.60;;;11.30;99.90;;;;;;934218;149;27389;-80
2023/12/15 11:44:27;;;;;;;9.30;7.20;;;11.40;99.90;;;;;;934224;149;27456;-81
2023/12/15 11:46:51;;;;;;;9.67;7.47;;;11.40;99.90;;;;;;936443;149;27374;-80
2023/12/15 11:49:23;;;;;;;9.13;7.13;;;11.50;99.90;;;;;;942679;148;27332;-80
2023/12/15 11:51:50;;;;;;;7.47;6.43;;;11.50;99.90;;;;;;955948;145;27312;-80
2023/12/15 11:54:16;;;;;;;7.57;6.87;;;11.60;99.90;;;;;;938979;149;27343;-80
2023/12/15 11:56:44;;;;;;;7.87;6.37;;;11.60;99.90;;;;;;938406;149;27383;-80
2023/12/15 11:59:09;;;;;;;6.97;6.27;;;11.60;99.90;;;;;;955534;145;28390;-81
2023/12/15 12:01:36;;;;;;;7.57;6.30;;;11.70;99.90;;;;;;941291;149;27361;-80
2023/12/15 12:04:03;;;;;;;6.60;5.83;;;11.70;99.90;;;;;;954023;146;27374;-81
2023/12/15 12:06:30;;;;;;;6.95;6.20;;;11.70;99.90;;;;;;942004;147;27272;-80
2023/12/15 12:08:56;;;;;;;7.33;6.63;;;11.80;99.90;;;;;;943762;147;27361;-80
2023/12/15 12:11:22;;;;;;;7.35;6.65;;;11.70;99.90;;;;;;941905;147;27421;-80
2023/12/15 12:13:50;;;;;;;7.62;6.83;;;11.80;99.90;;;;;;941665;147;27330;-80
2023/12/15 12:16:18;;;;;;;7.53;6.50;;;11.80;99.90;;;;;;942671;147;27293;-80
2023/12/15 12:18:46;;;;;;;7.80;6.83;;;11.80;99.90;;;;;;944166;147;27389;-80
2023/12/15 12:21:12;;;;;;;7.60;6.87;;;11.90;99.90;;;;;;942506;147;27360;-80
2023/12/15 12:23:38;;;;;;;8.37;6.63;;;11.90;99.90;;;;;;942576;147;27415;-80
2023/12/15 12:26:05;;;;;;;8.27;6.13;;;11.90;99.90;;;;;;941539;147;27446;-80
2023/12/15 12:28:50;;;;;;;7.55;6.12;;;11.90;99.90;;;;;;943625;147;27362;-81
2023/12/15 12:31:16;;;;;;;7.47;6.33;;;11.90;99.90;;;;;;943903;147;27448;-80
2023/12/15 12:33:42;;;;;;;8.43;6.13;;;11.90;99.90;;;;;;940771;147;27338;-80
2023/12/15 12:36:09;;;;;;;9.23;7.27;;;11.80;99.90;;;;;;927707;149;27448;-80
2023/12/15 12:38:36;;;;;;;8.80;6.97;;;11.80;99.90;;;;;;919640;151;27785;-81
2023/12/15 12:41:06;;;;;;;8.90;7.63;;;11.80;99.90;;;;;;941884;147;27388;-81
2023/12/15 12:43:29;;;;;;;10.00;7.43;;;11.80;99.90;;;;;;929009;149;27407;-81
2023/12/15 12:45:55;;;;;;;7.50;6.80;;;11.80;99.90;;;;;;942739;146;27652;-81
2023/12/15 12:48:22;;;;;;;8.13;7.22;;;11.80;99.90;;;;;;940732;148;27375;-81